sensor_id;sensor_type;location;lat;lon;timestamp;temperature;humidity
7307;DHT22;3694;48.732;9.248;2022-07-30T00:01:59;16.10;99.90
7307;DHT22;3694;48.732;9.248;2022-07-30T00:04:24;16.10;99.90
7307;DHT22;3694;48.732;9.248;2022-07-30T00:06:50;16.00;99.90
7307;DHT22;3694;48.732;9.248;2022-07-30T00:09:15;16.00;99.90
7307;DHT22;3694;48.732;9.248;2022-07-30T00:11:41;15.90;99.90
7307;DHT22;3694;48.732;9.248;2022-07-30T00:14:07;15.80;99.90
7307;DHT22;3694;48.732;9.248;2022-07-30T00:16:32;15.70;99.90
7307;DHT22;3694;48.732;9.248;2022-07-30T00:18:58;15.60;99.90
7307;DHT22;3694;48.732;9.248;2022-07-30T00:21:23;15.30;99.90
7307;DHT22;3694;48.732;9.248;2022-07-30T00:23:49;15.10;99.90
7307;DHT22;3694;48.732;9.248;2022-07-30T00:26:14;14.90;99.90
7307;DHT22;3694;48.732;9.248;2022-07-30T00:28:40;14.80;99.90
7307;DHT22;3694;48.732;9.248;2022-07-30T00:31:06;14.80;99.90
7307;DHT22;3694;48.732;9.248;2022-07-30T00:33:32;14.80;99.90
7307;DHT22;3694;48.732;9.248;2022-07-30T00:35:57;14.80;99.90
7307;DHT22;3694;48.732;9.248;2022-07-30T00:38:23;14.90;99.90
7307;DHT22;3694;48.732;9.248;2022-07-30T00:40:48;15.00;99.90
7307;DHT22;3694;48.732;9.248;2022-07-30T00:43:15;15.00;99.90
7307;DHT22;3694;48.732;9.248;2022-07-30T00:45:42;15.10;99.90
7307;DHT22;3694;48.732;9.248;2022-07-30T00:48:07;15.30;99.90
7307;DHT22;3694;48.732;9.248;2022-07-30T00:50:33;15.30;99.90
7307;DHT22;3694;48.732;9.248;2022-07-30T00:52:59;15.50;99.90
7307;DHT22;3694;48.732;9.248;2022-07-30T00:55:24;15.50;99.90
7307;DHT22;3694;48.732;9.248;2022-07-30T00:57:50;15.60;99.90
7307;DHT22;3694;48.732;9.248;2022-07-30T01:00:16;15.80;99.90
7307;DHT22;3694;48.732;9.248;2022-07-30T01:02:42;15.90;99.90
7307;DHT22;3694;48.732;9.248;2022-07-30T01:05:08;16.00;99.90
7307;DHT22;3694;48.732;9.248;2022-07-30T01:07:34;16.10;99.90
7307;DHT22;3694;48.732;9.248;2022-07-30T01:10:00;16.30;99.90
7307;DHT22;3694;48.732;9.248;2022-07-30T01:12:26;16.40;99.90
7307;DHT22;3694;48.732;9.248;2022-07-30T01:14:54;16.30;99.90
7307;DHT22;3694;48.732;9.248;2022-07-30T01:17:20;16.40;99.90
7307;DHT22;3694;48.732;9.248;2022-07-30T01:19:47;16.40;99.90
7307;DHT22;3694;48.732;9.248;2022-07-30T01:27:27;16.50;99.90
7307;DHT22;3694;48.732;9.248;2022-07-30T01:29:54;16.50;99.90
7307;DHT22;3694;48.732;9.248;2022-07-30T01:32:22;16.40;99.90
7307;DHT22;3694;48.732;9.248;2022-07-30T01:34:49;16.30;99.90
7307;DHT22;3694;48.732;9.248;2022-07-30T01:37:16;16.20;99.90
7307;DHT22;3694;48.732;9.248;2022-07-30T01:39:43;16.00;99.90
7307;DHT22;3694;48.732;9.248;2022-07-30T01:42:10;15.90;99.90
7307;DHT22;3694;48.732;9.248;2022-07-30T01:44:36;15.80;99.90
7307;DHT22;3694;48.732;9.248;2022-07-30T01:47:03;15.60;99.90
7307;DHT22;3694;48.732;9.248;2022-07-30T01:49:31;15.60;99.90
7307;DHT22;3694;48.732;9.248;2022-07-30T01:51:59;15.50;99.90
7307;DHT22;3694;48.732;9.248;2022-07-30T01:54:28;15.40;99.90
7307;DHT22;3694;48.732;9.248;2022-07-30T01:56:55;15.30;99.90
7307;DHT22;3694;48.732;9.248;2022-07-30T01:59:24;15.40;99.90
7307;DHT22;3694;48.732;9.248;2022-07-30T02:01:51;15.30;99.90
7307;DHT22;3694;48.732;9.248;2022-07-30T02:04:16;15.30;99.90
7307;DHT22;3694;48.732;9.248;2022-07-30T02:06:50;15.50;99.90
7307;DHT22;3694;48.732;9.248;2022-07-30T02:09:21;15.50;99.90
7307;DHT22;3694;48.732;9.248;2022-07-30T02:11:50;15.50;99.90
7307;DHT22;3694;48.732;9.248;2022-07-30T02:14:49;15.50;99.90
7307;DHT22;3694;48.732;9.248;2022-07-30T02:17:21;15.50;99.90
7307;DHT22;3694;48.732;9.248;2022-07-30T02:19:51;15.40;99.90
7307;DHT22;3694;48.732;9.248;2022-07-30T02:22:19;15.30;99.90
7307;DHT22;3694;48.732;9.248;2022-07-30T02:24:47;15.20;99.90
7307;DHT22;3694;48.732;9.248;2022-07-30T02:27:19;15.10;99.90
7307;DHT22;3694;48.732;9.248;2022-07-30T02:29:46;15.00;99.90
7307;DHT22;3694;48.732;9.248;2022-07-30T02:32:15;14.90;99.90
7307;DHT22;3694;48.732;9.248;2022-07-30T02:34:42;14.80;99.90
7307;DHT22;3694;48.732;9.248;2022-07-30T02:37:10;14.70;99.90
7307;DHT22;3694;48.732;9.248;2022-07-30T02:39:37;14.60;99.90
7307;DHT22;3694;48.732;9.248;2022-07-30T02:42:05;14.50;99.90
7307;DHT22;3694;48.732;9.248;2022-07-30T02:44:32;14.50;99.90
7307;DHT22;3694;48.732;9.248;2022-07-30T02:47:00;14.50;99.90
7307;DHT22;3694;48.732;9.248;2022-07-30T02:49:28;14.60;99.90
7307;DHT22;3694;48.732;9.248;2022-07-30T02:51:55;14.60;99.90
7307;DHT22;3694;48.732;9.248;2022-07-30T02:54:21;14.60;99.90
7307;DHT22;3694;48.732;9.248;2022-07-30T02:56:49;14.50;99.90
7307;DHT22;3694;48.732;9.248;2022-07-30T02:59:17;14.50;99.90
7307;DHT22;3694;48.732;9.248;2022-07-30T03:01:44;14.40;99.90
7307;DHT22;3694;48.732;9.248;2022-07-30T03:04:12;14.50;99.90
7307;DHT22;3694;48.732;9.248;2022-07-30T03:06:39;14.40;99.90
7307;DHT22;3694;48.732;9.248;2022-07-30T03:09:04;14.40;99.90
7307;DHT22;3694;48.732;9.248;2022-07-30T03:11:32;14.40;99.90
7307;DHT22;3694;48.732;9.248;2022-07-30T03:13:58;14.40;99.90
7307;DHT22;3694;48.732;9.248;2022-07-30T03:16:25;14.50;99.90
7307;DHT22;3694;48.732;9.248;2022-07-30T03:18:52;14.50;99.90
7307;DHT22;3694;48.732;9.248;2022-07-30T03:21:19;14.40;99.90
7307;DHT22;3694;48.732;9.248;2022-07-30T03:23:47;14.40;99.90
7307;DHT22;3694;48.732;9.248;2022-07-30T03:26:14;14.40;99.90
7307;DHT22;3694;48.732;9.248;2022-07-30T03:28:41;14.30;99.90
7307;DHT22;3694;48.732;9.248;2022-07-30T03:31:07;14.20;99.90
7307;DHT22;3694;48.732;9.248;2022-07-30T03:33:35;14.10;99.90
7307;DHT22;3694;48.732;9.248;2022-07-30T03:36:02;14.00;99.90
7307;DHT22;3694;48.732;9.248;2022-07-30T03:38:28;13.90;99.90
7307;DHT22;3694;48.732;9.248;2022-07-30T03:40:54;13.80;99.90
7307;DHT22;3694;48.732;9.248;2022-07-30T03:43:21;13.80;99.90
7307;DHT22;3694;48.732;9.248;2022-07-30T03:45:48;13.70;99.90
7307;DHT22;3694;48.732;9.248;2022-07-30T03:48:14;13.90;99.90
7307;DHT22;3694;48.732;9.248;2022-07-30T03:50:41;14.10;99.90
7307;DHT22;3694;48.732;9.248;2022-07-30T03:53:08;14.10;99.90
7307;DHT22;3694;48.732;9.248;2022-07-30T03:55:35;14.20;99.90
7307;DHT22;3694;48.732;9.248;2022-07-30T03:58:02;14.30;99.90
7307;DHT22;3694;48.732;9.248;2022-07-30T04:00:27;14.40;99.90
7307;DHT22;3694;48.732;9.248;2022-07-30T04:02:54;14.50;99.90
7307;DHT22;3694;48.732;9.248;2022-07-30T04:05:20;14.70;99.90
7307;DHT22;3694;48.732;9.248;2022-07-30T04:07:46;14.80;99.90
7307;DHT22;3694;48.732;9.248;2022-07-30T04:10:13;15.00;99.90
7307;DHT22;3694;48.732;9.248;2022-07-30T04:12:39;15.10;99.90
7307;DHT22;3694;48.732;9.248;2022-07-30T04:15:04;15.20;99.90
7307;DHT22;3694;48.732;9.248;2022-07-30T04:17:48;15.30;99.90
7307;DHT22;3694;48.732;9.248;2022-07-30T04:20:38;15.30;99.90
7307;DHT22;3694;48.732;9.248;2022-07-30T04:23:06;15.30;99.90
7307;DHT22;3694;48.732;9.248;2022-07-30T04:25:32;15.40;99.90
7307;DHT22;3694;48.732;9.248;2022-07-30T04:27:58;15.30;99.90
7307;DHT22;3694;48.732;9.248;2022-07-30T04:30:24;15.40;99.90
7307;DHT22;3694;48.732;9.248;2022-07-30T04:32:50;15.40;99.90
7307;DHT22;3694;48.732;9.248;2022-07-30T04:35:15;15.40;99.90
7307;DHT22;3694;48.732;9.248;2022-07-30T04:37:41;15.30;99.90
7307;DHT22;3694;48.732;9.248;2022-07-30T04:40:07;15.40;99.90
7307;DHT22;3694;48.732;9.248;2022-07-30T04:42:32;15.50;99.90
7307;DHT22;3694;48.732;9.248;2022-07-30T04:44:58;15.60;99.90
7307;DHT22;3694;48.732;9.248;2022-07-30T04:47:24;15.70;99.90
7307;DHT22;3694;48.732;9.248;2022-07-30T04:49:50;15.80;99.90
7307;DHT22;3694;48.732;9.248;2022-07-30T04:52:17;15.90;99.90
7307;DHT22;3694;48.732;9.248;2022-07-30T04:54:49;16.00;99.90
7307;DHT22;3694;48.732;9.248;2022-07-30T04:57:16;16.10;99.90
7307;DHT22;3694;48.732;9.248;2022-07-30T04:59:42;16.20;99.90
7307;DHT22;3694;48.732;9.248;2022-07-30T05:02:08;16.30;99.90
7307;DHT22;3694;48.732;9.248;2022-07-30T05:04:35;16.30;99.90
7307;DHT22;3694;48.732;9.248;2022-07-30T05:07:02;16.40;99.90
7307;DHT22;3694;48.732;9.248;2022-07-30T05:09:28;16.50;99.90
7307;DHT22;3694;48.732;9.248;2022-07-30T05:11:56;16.60;99.90
7307;DHT22;3694;48.732;9.248;2022-07-30T05:14:24;16.60;99.90
7307;DHT22;3694;48.732;9.248;2022-07-30T05:16:50;16.70;99.90
7307;DHT22;3694;48.732;9.248;2022-07-30T05:19:17;16.80;99.90
7307;DHT22;3694;48.732;9.248;2022-07-30T05:21:43;16.90;99.90
7307;DHT22;3694;48.732;9.248;2022-07-30T05:24:09;16.90;99.90
7307;DHT22;3694;48.732;9.248;2022-07-30T05:26:35;17.20;99.90
7307;DHT22;3694;48.732;9.248;2022-07-30T05:29:00;17.90;99.90
7307;DHT22;3694;48.732;9.248;2022-07-30T05:31:26;18.90;99.20
7307;DHT22;3694;48.732;9.248;2022-07-30T05:33:51;19.70;97.20
7307;DHT22;3694;48.732;9.248;2022-07-30T05:36:18;20.00;96.10
7307;DHT22;3694;48.732;9.248;2022-07-30T05:38:43;20.30;95.00
7307;DHT22;3694;48.732;9.248;2022-07-30T05:41:09;20.50;93.60
7307;DHT22;3694;48.732;9.248;2022-07-30T05:43:34;20.70;92.90
7307;DHT22;3694;48.732;9.248;2022-07-30T05:46:00;21.10;93.10
7307;DHT22;3694;48.732;9.248;2022-07-30T05:48:25;21.90;91.50
7307;DHT22;3694;48.732;9.248;2022-07-30T05:50:52;22.60;88.50
7307;DHT22;3694;48.732;9.248;2022-07-30T05:53:18;23.40;84.80
7307;DHT22;3694;48.732;9.248;2022-07-30T05:55:44;24.10;81.50
7307;DHT22;3694;48.732;9.248;2022-07-30T05:58:09;24.80;79.00
7307;DHT22;3694;48.732;9.248;2022-07-30T06:00:35;25.30;77.30
7307;DHT22;3694;48.732;9.248;2022-07-30T06:03:01;26.00;74.30
7307;DHT22;3694;48.732;9.248;2022-07-30T06:05:26;26.70;71.60
7307;DHT22;3694;48.732;9.248;2022-07-30T06:07:53;27.10;69.70
7307;DHT22;3694;48.732;9.248;2022-07-30T06:10:18;27.20;67.40
7307;DHT22;3694;48.732;9.248;2022-07-30T06:12:44;27.30;66.80
7307;DHT22;3694;48.732;9.248;2022-07-30T06:15:09;27.60;66.40
7307;DHT22;3694;48.732;9.248;2022-07-30T06:17:43;27.70;65.40
7307;DHT22;3694;48.732;9.248;2022-07-30T06:20:10;27.70;64.70
7307;DHT22;3694;48.732;9.248;2022-07-30T06:22:36;27.90;64.70
7307;DHT22;3694;48.732;9.248;2022-07-30T06:25:01;28.40;63.90
7307;DHT22;3694;48.732;9.248;2022-07-30T06:27:27;28.60;61.80
7307;DHT22;3694;48.732;9.248;2022-07-30T06:29:53;28.70;62.20
7307;DHT22;3694;48.732;9.248;2022-07-30T06:32:18;28.50;61.10
7307;DHT22;3694;48.732;9.248;2022-07-30T06:34:44;28.10;61.20
7307;DHT22;3694;48.732;9.248;2022-07-30T06:37:10;28.30;61.40
7307;DHT22;3694;48.732;9.248;2022-07-30T06:39:35;28.30;62.00
7307;DHT22;3694;48.732;9.248;2022-07-30T06:42:01;28.50;61.60
7307;DHT22;3694;48.732;9.248;2022-07-30T06:44:27;28.60;59.90
7307;DHT22;3694;48.732;9.248;2022-07-30T06:46:52;28.90;59.10
7307;DHT22;3694;48.732;9.248;2022-07-30T06:49:17;28.90;58.10
7307;DHT22;3694;48.732;9.248;2022-07-30T06:51:43;29.00;59.20
7307;DHT22;3694;48.732;9.248;2022-07-30T06:54:10;29.30;58.90
7307;DHT22;3694;48.732;9.248;2022-07-30T06:56:36;29.60;57.20
7307;DHT22;3694;48.732;9.248;2022-07-30T06:59:01;29.60;56.50
7307;DHT22;3694;48.732;9.248;2022-07-30T07:01:27;29.60;56.30
7307;DHT22;3694;48.732;9.248;2022-07-30T07:03:52;29.60;56.60
7307;DHT22;3694;48.732;9.248;2022-07-30T07:06:18;29.70;56.50
7307;DHT22;3694;48.732;9.248;2022-07-30T07:08:43;30.00;56.30
7307;DHT22;3694;48.732;9.248;2022-07-30T07:11:09;30.30;55.60
7307;DHT22;3694;48.732;9.248;2022-07-30T07:13:35;30.30;54.40
7307;DHT22;3694;48.732;9.248;2022-07-30T07:16:00;30.40;55.10
7307;DHT22;3694;48.732;9.248;2022-07-30T07:18:26;30.50;53.90
7307;DHT22;3694;48.732;9.248;2022-07-30T07:20:51;30.70;55.30
7307;DHT22;3694;48.732;9.248;2022-07-30T07:23:17;30.70;52.20
7307;DHT22;3694;48.732;9.248;2022-07-30T07:25:42;30.60;53.50
7307;DHT22;3694;48.732;9.248;2022-07-30T07:28:08;30.50;51.90
7307;DHT22;3694;48.732;9.248;2022-07-30T07:30:34;30.30;53.10
7307;DHT22;3694;48.732;9.248;2022-07-30T07:32:59;30.30;51.50
7307;DHT22;3694;48.732;9.248;2022-07-30T07:35:25;30.30;52.40
7307;DHT22;3694;48.732;9.248;2022-07-30T07:37:50;30.60;51.90
7307;DHT22;3694;48.732;9.248;2022-07-30T07:40:16;30.50;50.40
7307;DHT22;3694;48.732;9.248;2022-07-30T07:42:42;30.60;51.70
7307;DHT22;3694;48.732;9.248;2022-07-30T07:45:08;30.10;51.00
7307;DHT22;3694;48.732;9.248;2022-07-30T07:47:47;30.10;51.90
7307;DHT22;3694;48.732;9.248;2022-07-30T07:50:14;29.90;50.60
7307;DHT22;3694;48.732;9.248;2022-07-30T07:52:40;29.20;51.00
7307;DHT22;3694;48.732;9.248;2022-07-30T07:55:06;29.10;50.20
7307;DHT22;3694;48.732;9.248;2022-07-30T07:57:42;28.90;51.60
7307;DHT22;3694;48.732;9.248;2022-07-30T08:00:10;29.00;52.40
7307;DHT22;3694;48.732;9.248;2022-07-30T08:02:36;29.40;51.30
7307;DHT22;3694;48.732;9.248;2022-07-30T08:05:06;29.40;50.20
7307;DHT22;3694;48.732;9.248;2022-07-30T08:07:32;29.50;51.10
7307;DHT22;3694;48.732;9.248;2022-07-30T08:09:58;29.70;48.60
7307;DHT22;3694;48.732;9.248;2022-07-30T08:12:27;29.50;48.70
7307;DHT22;3694;48.732;9.248;2022-07-30T08:14:52;29.10;49.10
7307;DHT22;3694;48.732;9.248;2022-07-30T08:17:18;29.10;49.40
7307;DHT22;3694;48.732;9.248;2022-07-30T08:19:44;28.60;50.20
7307;DHT22;3694;48.732;9.248;2022-07-30T08:22:10;28.20;50.60
7307;DHT22;3694;48.732;9.248;2022-07-30T08:24:36;27.90;50.00
7307;DHT22;3694;48.732;9.248;2022-07-30T08:27:01;28.20;51.00
7307;DHT22;3694;48.732;9.248;2022-07-30T08:29:27;28.50;50.30
7307;DHT22;3694;48.732;9.248;2022-07-30T08:31:54;29.00;49.60
7307;DHT22;3694;48.732;9.248;2022-07-30T08:34:19;28.90;51.60
7307;DHT22;3694;48.732;9.248;2022-07-30T08:36:45;28.40;49.50
7307;DHT22;3694;48.732;9.248;2022-07-30T08:39:10;28.50;51.20
7307;DHT22;3694;48.732;9.248;2022-07-30T08:41:36;28.90;51.20
7307;DHT22;3694;48.732;9.248;2022-07-30T08:44:02;28.50;51.00
7307;DHT22;3694;48.732;9.248;2022-07-30T08:46:30;28.60;49.40
7307;DHT22;3694;48.732;9.248;2022-07-30T08:48:58;28.70;50.30
7307;DHT22;3694;48.732;9.248;2022-07-30T08:51:23;28.80;50.20
7307;DHT22;3694;48.732;9.248;2022-07-30T08:53:50;28.60;49.40
7307;DHT22;3694;48.732;9.248;2022-07-30T08:56:16;28.70;50.00
7307;DHT22;3694;48.732;9.248;2022-07-30T08:58:42;28.90;50.10
7307;DHT22;3694;48.732;9.248;2022-07-30T09:01:08;29.20;51.20
7307;DHT22;3694;48.732;9.248;2022-07-30T09:03:34;29.10;49.80
7307;DHT22;3694;48.732;9.248;2022-07-30T09:06:02;28.50;49.40
7307;DHT22;3694;48.732;9.248;2022-07-30T09:08:29;28.50;50.60
7307;DHT22;3694;48.732;9.248;2022-07-30T09:10:54;28.70;48.90
7307;DHT22;3694;48.732;9.248;2022-07-30T09:13:27;28.20;48.10
7307;DHT22;3694;48.732;9.248;2022-07-30T09:15:53;27.80;50.10
7307;DHT22;3694;48.732;9.248;2022-07-30T09:18:38;27.60;52.60
7307;DHT22;3694;48.732;9.248;2022-07-30T09:24:09;28.50;50.80
7307;DHT22;3694;48.732;9.248;2022-07-30T09:26:56;28.50;48.80
7307;DHT22;3694;48.732;9.248;2022-07-30T09:29:25;28.90;49.80
7307;DHT22;3694;48.732;9.248;2022-07-30T09:32:05;29.10;48.00
7307;DHT22;3694;48.732;9.248;2022-07-30T09:34:36;28.70;48.50
7307;DHT22;3694;48.732;9.248;2022-07-30T09:37:20;28.10;48.90
7307;DHT22;3694;48.732;9.248;2022-07-30T09:39:45;28.00;50.00
7307;DHT22;3694;48.732;9.248;2022-07-30T09:42:25;27.70;48.50
7307;DHT22;3694;48.732;9.248;2022-07-30T09:44:51;27.80;49.30
7307;DHT22;3694;48.732;9.248;2022-07-30T09:47:29;28.20;48.90
7307;DHT22;3694;48.732;9.248;2022-07-30T09:50:12;28.40;48.10
7307;DHT22;3694;48.732;9.248;2022-07-30T09:52:40;28.50;47.50
7307;DHT22;3694;48.732;9.248;2022-07-30T09:55:06;28.00;48.50
7307;DHT22;3694;48.732;9.248;2022-07-30T09:57:32;28.20;51.70
7307;DHT22;3694;48.732;9.248;2022-07-30T10:00:15;28.70;50.00
7307;DHT22;3694;48.732;9.248;2022-07-30T10:02:41;29.10;48.00
7307;DHT22;3694;48.732;9.248;2022-07-30T10:05:08;29.30;48.70
7307;DHT22;3694;48.732;9.248;2022-07-30T10:07:34;29.40;48.30
7307;DHT22;3694;48.732;9.248;2022-07-30T10:10:01;29.10;48.30
7307;DHT22;3694;48.732;9.248;2022-07-30T10:12:27;29.00;47.50
7307;DHT22;3694;48.732;9.248;2022-07-30T10:14:54;29.60;48.00
7307;DHT22;3694;48.732;9.248;2022-07-30T10:17:21;29.60;45.70
7307;DHT22;3694;48.732;9.248;2022-07-30T10:19:47;29.10;47.50
7307;DHT22;3694;48.732;9.248;2022-07-30T10:22:13;28.80;47.70
7307;DHT22;3694;48.732;9.248;2022-07-30T10:24:39;28.50;49.30
7307;DHT22;3694;48.732;9.248;2022-07-30T10:27:07;28.40;48.10
7307;DHT22;3694;48.732;9.248;2022-07-30T10:29:33;28.30;47.40
7307;DHT22;3694;48.732;9.248;2022-07-30T10:32:01;28.10;46.30
7307;DHT22;3694;48.732;9.248;2022-07-30T10:34:27;28.10;47.70
7307;DHT22;3694;48.732;9.248;2022-07-30T10:36:56;28.30;47.10
7307;DHT22;3694;48.732;9.248;2022-07-30T10:39:27;28.10;46.50
7307;DHT22;3694;48.732;9.248;2022-07-30T10:42:14;28.70;49.80
7307;DHT22;3694;48.732;9.248;2022-07-30T10:47:25;29.50;48.20
7307;DHT22;3694;48.732;9.248;2022-07-30T10:50:12;29.40;48.20
7307;DHT22;3694;48.732;9.248;2022-07-30T10:52:47;29.70;48.80
7307;DHT22;3694;48.732;9.248;2022-07-30T10:55:16;29.70;45.20
7307;DHT22;3694;48.732;9.248;2022-07-30T11:00:28;29.90;46.90
7307;DHT22;3694;48.732;9.248;2022-07-30T11:03:18;29.90;46.60
7307;DHT22;3694;48.732;9.248;2022-07-30T11:05:46;29.10;47.30
7307;DHT22;3694;48.732;9.248;2022-07-30T11:08:38;28.50;46.90
7307;DHT22;3694;48.732;9.248;2022-07-30T11:13:58;27.10;48.40
7307;DHT22;3694;48.732;9.248;2022-07-30T11:19:10;27.40;46.90
7307;DHT22;3694;48.732;9.248;2022-07-30T11:22:41;27.80;48.10
7307;DHT22;3694;48.732;9.248;2022-07-30T11:27:47;28.60;45.40
7307;DHT22;3694;48.732;9.248;2022-07-30T11:32:40;28.20;47.80
7307;DHT22;3694;48.732;9.248;2022-07-30T11:35:20;28.50;46.10
7307;DHT22;3694;48.732;9.248;2022-07-30T11:37:58;28.90;47.50
7307;DHT22;3694;48.732;9.248;2022-07-30T11:40:25;29.50;46.00
7307;DHT22;3694;48.732;9.248;2022-07-30T11:43:15;29.60;45.70
7307;DHT22;3694;48.732;9.248;2022-07-30T11:45:46;29.50;46.10
7307;DHT22;3694;48.732;9.248;2022-07-30T11:48:13;29.60;45.50
7307;DHT22;3694;48.732;9.248;2022-07-30T11:50:40;29.40;46.10
7307;DHT22;3694;48.732;9.248;2022-07-30T11:53:08;29.50;46.50
7307;DHT22;3694;48.732;9.248;2022-07-30T11:55:42;29.70;47.90
7307;DHT22;3694;48.732;9.248;2022-07-30T11:58:35;29.80;45.70
7307;DHT22;3694;48.732;9.248;2022-07-30T12:01:13;30.00;46.70
7307;DHT22;3694;48.732;9.248;2022-07-30T12:03:44;29.60;45.50
7307;DHT22;3694;48.732;9.248;2022-07-30T12:06:12;28.70;44.90
7307;DHT22;3694;48.732;9.248;2022-07-30T12:08:46;28.50;45.50
7307;DHT22;3694;48.732;9.248;2022-07-30T12:11:13;28.30;45.60
7307;DHT22;3694;48.732;9.248;2022-07-30T12:13:39;28.40;48.40
7307;DHT22;3694;48.732;9.248;2022-07-30T12:16:09;28.90;47.80
7307;DHT22;3694;48.732;9.248;2022-07-30T12:18:36;28.90;48.00
7307;DHT22;3694;48.732;9.248;2022-07-30T12:21:04;28.60;47.70
7307;DHT22;3694;48.732;9.248;2022-07-30T12:23:33;28.90;48.30
7307;DHT22;3694;48.732;9.248;2022-07-30T12:25:58;29.10;46.50
7307;DHT22;3694;48.732;9.248;2022-07-30T12:28:25;29.10;45.80
7307;DHT22;3694;48.732;9.248;2022-07-30T12:30:52;29.30;45.50
7307;DHT22;3694;48.732;9.248;2022-07-30T12:33:18;29.70;45.80
7307;DHT22;3694;48.732;9.248;2022-07-30T12:38:17;30.10;43.50
7307;DHT22;3694;48.732;9.248;2022-07-30T12:40:53;30.40;42.90
7307;DHT22;3694;48.732;9.248;2022-07-30T12:43:42;30.80;43.00
7307;DHT22;3694;48.732;9.248;2022-07-30T12:46:10;30.80;43.30
7307;DHT22;3694;48.732;9.248;2022-07-30T12:48:35;31.10;43.00
7307;DHT22;3694;48.732;9.248;2022-07-30T12:51:06;30.70;42.20
7307;DHT22;3694;48.732;9.248;2022-07-30T12:53:31;30.00;43.70
7307;DHT22;3694;48.732;9.248;2022-07-30T12:56:14;29.60;42.20
7307;DHT22;3694;48.732;9.248;2022-07-30T12:58:40;29.60;42.90
7307;DHT22;3694;48.732;9.248;2022-07-30T13:01:06;29.70;43.60
7307;DHT22;3694;48.732;9.248;2022-07-30T13:03:32;29.50;45.70
7307;DHT22;3694;48.732;9.248;2022-07-30T13:06:12;29.40;45.80
7307;DHT22;3694;48.732;9.248;2022-07-30T13:08:52;29.10;43.90
7307;DHT22;3694;48.732;9.248;2022-07-30T13:11:20;29.20;44.10
7307;DHT22;3694;48.732;9.248;2022-07-30T13:13:47;29.60;44.90
7307;DHT22;3694;48.732;9.248;2022-07-30T13:16:13;30.10;43.20
7307;DHT22;3694;48.732;9.248;2022-07-30T13:18:39;30.40;44.60
7307;DHT22;3694;48.732;9.248;2022-07-30T13:21:05;30.10;42.00
7307;DHT22;3694;48.732;9.248;2022-07-30T13:23:34;29.70;44.00
7307;DHT22;3694;48.732;9.248;2022-07-30T13:25:59;30.00;44.40
7307;DHT22;3694;48.732;9.248;2022-07-30T13:28:25;30.00;43.20
7307;DHT22;3694;48.732;9.248;2022-07-30T13:30:52;30.00;41.60
7307;DHT22;3694;48.732;9.248;2022-07-30T13:33:18;29.80;42.50
7307;DHT22;3694;48.732;9.248;2022-07-30T13:35:44;29.20;42.90
7307;DHT22;3694;48.732;9.248;2022-07-30T13:38:10;28.90;43.70
7307;DHT22;3694;48.732;9.248;2022-07-30T13:40:37;29.40;47.90
7307;DHT22;3694;48.732;9.248;2022-07-30T13:43:03;29.50;43.90
7307;DHT22;3694;48.732;9.248;2022-07-30T13:45:29;29.60;43.60
7307;DHT22;3694;48.732;9.248;2022-07-30T13:47:55;30.20;44.30
7307;DHT22;3694;48.732;9.248;2022-07-30T13:50:21;30.60;43.80
7307;DHT22;3694;48.732;9.248;2022-07-30T13:52:47;30.20;43.40
7307;DHT22;3694;48.732;9.248;2022-07-30T13:55:12;29.30;43.10
7307;DHT22;3694;48.732;9.248;2022-07-30T13:57:38;28.50;43.80
7307;DHT22;3694;48.732;9.248;2022-07-30T14:00:05;27.90;43.90
7307;DHT22;3694;48.732;9.248;2022-07-30T14:02:31;27.50;45.80
7307;DHT22;3694;48.732;9.248;2022-07-30T14:04:57;27.00;45.80
7307;DHT22;3694;48.732;9.248;2022-07-30T14:07:23;27.00;45.70
7307;DHT22;3694;48.732;9.248;2022-07-30T14:09:48;27.10;45.20
7307;DHT22;3694;48.732;9.248;2022-07-30T14:12:14;26.80;45.50
7307;DHT22;3694;48.732;9.248;2022-07-30T14:14:40;26.60;46.50
7307;DHT22;3694;48.732;9.248;2022-07-30T14:17:05;26.80;46.60
7307;DHT22;3694;48.732;9.248;2022-07-30T14:19:31;27.20;46.80
7307;DHT22;3694;48.732;9.248;2022-07-30T14:21:56;28.00;44.60
7307;DHT22;3694;48.732;9.248;2022-07-30T14:24:22;28.50;46.50
7307;DHT22;3694;48.732;9.248;2022-07-30T14:26:48;28.60;45.00
7307;DHT22;3694;48.732;9.248;2022-07-30T14:29:15;28.20;44.30
7307;DHT22;3694;48.732;9.248;2022-07-30T14:31:41;27.70;45.00
7307;DHT22;3694;48.732;9.248;2022-07-30T14:34:07;27.60;44.50
7307;DHT22;3694;48.732;9.248;2022-07-30T14:36:33;27.20;45.00
7307;DHT22;3694;48.732;9.248;2022-07-30T14:38:59;26.80;46.20
7307;DHT22;3694;48.732;9.248;2022-07-30T14:41:26;26.70;46.40
7307;DHT22;3694;48.732;9.248;2022-07-30T14:43:52;27.10;47.20
7307;DHT22;3694;48.732;9.248;2022-07-30T14:46:18;27.40;47.20
7307;DHT22;3694;48.732;9.248;2022-07-30T14:48:44;27.70;47.40
7307;DHT22;3694;48.732;9.248;2022-07-30T14:51:10;27.60;46.60
7307;DHT22;3694;48.732;9.248;2022-07-30T14:53:36;27.20;45.70
7307;DHT22;3694;48.732;9.248;2022-07-30T14:56:13;27.40;45.10
7307;DHT22;3694;48.732;9.248;2022-07-30T14:58:41;27.20;46.40
7307;DHT22;3694;48.732;9.248;2022-07-30T15:01:10;27.20;46.20
7307;DHT22;3694;48.732;9.248;2022-07-30T15:03:43;27.10;46.10
7307;DHT22;3694;48.732;9.248;2022-07-30T15:06:11;27.30;46.80
7307;DHT22;3694;48.732;9.248;2022-07-30T15:08:37;27.60;46.40
7307;DHT22;3694;48.732;9.248;2022-07-30T15:11:03;27.80;46.60
7307;DHT22;3694;48.732;9.248;2022-07-30T15:13:29;28.10;46.50
7307;DHT22;3694;48.732;9.248;2022-07-30T15:15:54;28.60;46.10
7307;DHT22;3694;48.732;9.248;2022-07-30T15:18:20;28.70;45.60
7307;DHT22;3694;48.732;9.248;2022-07-30T15:20:46;28.90;46.40
7307;DHT22;3694;48.732;9.248;2022-07-30T15:23:11;28.90;44.30
7307;DHT22;3694;48.732;9.248;2022-07-30T15:25:39;28.90;44.80
7307;DHT22;3694;48.732;9.248;2022-07-30T15:28:07;28.60;44.50
7307;DHT22;3694;48.732;9.248;2022-07-30T15:30:33;28.10;44.80
7307;DHT22;3694;48.732;9.248;2022-07-30T15:33:04;27.70;45.30
7307;DHT22;3694;48.732;9.248;2022-07-30T15:35:30;27.60;45.70
7307;DHT22;3694;48.732;9.248;2022-07-30T15:37:58;27.50;45.40
7307;DHT22;3694;48.732;9.248;2022-07-30T15:40:24;27.20;45.70
7307;DHT22;3694;48.732;9.248;2022-07-30T15:42:50;27.20;45.90
7307;DHT22;3694;48.732;9.248;2022-07-30T15:45:19;26.90;46.30
7307;DHT22;3694;48.732;9.248;2022-07-30T15:47:45;26.80;47.20
7307;DHT22;3694;48.732;9.248;2022-07-30T15:50:11;26.50;46.20
7307;DHT22;3694;48.732;9.248;2022-07-30T15:52:36;26.60;46.60
7307;DHT22;3694;48.732;9.248;2022-07-30T15:55:03;26.90;46.60
7307;DHT22;3694;48.732;9.248;2022-07-30T15:57:29;27.10;47.20
7307;DHT22;3694;48.732;9.248;2022-07-30T15:59:56;27.10;45.80
7307;DHT22;3694;48.732;9.248;2022-07-30T16:02:21;27.30;46.40
7307;DHT22;3694;48.732;9.248;2022-07-30T16:04:52;27.30;46.00
7307;DHT22;3694;48.732;9.248;2022-07-30T16:07:23;27.10;45.60
7307;DHT22;3694;48.732;9.248;2022-07-30T16:09:48;27.20;46.40
7307;DHT22;3694;48.732;9.248;2022-07-30T16:12:20;27.00;46.20
7307;DHT22;3694;48.732;9.248;2022-07-30T16:14:45;27.00;46.60
7307;DHT22;3694;48.732;9.248;2022-07-30T16:17:11;27.00;45.90
7307;DHT22;3694;48.732;9.248;2022-07-30T16:19:44;26.90;46.80
7307;DHT22;3694;48.732;9.248;2022-07-30T16:22:13;27.00;45.60
7307;DHT22;3694;48.732;9.248;2022-07-30T16:24:41;27.10;46.20
7307;DHT22;3694;48.732;9.248;2022-07-30T16:27:15;27.20;46.00
7307;DHT22;3694;48.732;9.248;2022-07-30T16:29:45;27.10;46.20
7307;DHT22;3694;48.732;9.248;2022-07-30T16:32:19;26.90;46.20
7307;DHT22;3694;48.732;9.248;2022-07-30T16:34:45;26.80;45.90